sensor_id;sensor_type;location;lat;lon;timestamp;temperature;humidity
19755;DHT22;10036;47.812;9.274;2023-07-24T00:00:45;19.20;99.90
19755;DHT22;10036;47.812;9.274;2023-07-24T00:03:12;19.10;99.90
19755;DHT22;10036;47.812;9.274;2023-07-24T00:05:39;18.90;99.90
19755;DHT22;10036;47.812;9.274;2023-07-24T00:08:07;18.60;99.90
19755;DHT22;10036;47.812;9.274;2023-07-24T00:10:34;18.60;99.90
19755;DHT22;10036;47.812;9.274;2023-07-24T00:13:01;18.80;99.90
19755;DHT22;10036;47.812;9.274;2023-07-24T00:15:28;18.90;99.90
19755;DHT22;10036;47.812;9.274;2023-07-24T00:17:55;19.00;99.90
19755;DHT22;10036;47.812;9.274;2023-07-24T00:20:22;19.20;99.90
19755;DHT22;10036;47.812;9.274;2023-07-24T00:22:50;19.20;99.90
19755;DHT22;10036;47.812;9.274;2023-07-24T00:25:18;19.30;99.90
19755;DHT22;10036;47.812;9.274;2023-07-24T00:27:45;19.10;99.90
19755;DHT22;10036;47.812;9.274;2023-07-24T00:30:12;18.40;99.90
19755;DHT22;10036;47.812;9.274;2023-07-24T00:32:39;18.20;99.90
19755;DHT22;10036;47.812;9.274;2023-07-24T00:35:07;18.50;99.90
19755;DHT22;10036;47.812;9.274;2023-07-24T00:37:34;18.60;99.90
19755;DHT22;10036;47.812;9.274;2023-07-24T00:40:01;18.90;99.90
19755;DHT22;10036;47.812;9.274;2023-07-24T00:42:29;18.90;99.90
19755;DHT22;10036;47.812;9.274;2023-07-24T00:44:56;18.90;99.90
19755;DHT22;10036;47.812;9.274;2023-07-24T00:47:23;19.10;99.90
19755;DHT22;10036;47.812;9.274;2023-07-24T00:49:51;18.90;99.90
19755;DHT22;10036;47.812;9.274;2023-07-24T00:52:19;18.90;99.90
19755;DHT22;10036;47.812;9.274;2023-07-24T00:54:46;18.60;99.90
19755;DHT22;10036;47.812;9.274;2023-07-24T00:57:13;18.80;99.90
19755;DHT22;10036;47.812;9.274;2023-07-24T00:59:42;18.90;99.90
19755;DHT22;10036;47.812;9.274;2023-07-24T01:02:09;18.80;99.90
19755;DHT22;10036;47.812;9.274;2023-07-24T01:04:37;18.40;99.90
19755;DHT22;10036;47.812;9.274;2023-07-24T01:07:04;18.30;99.90
19755;DHT22;10036;47.812;9.274;2023-07-24T01:09:31;18.30;99.90
19755;DHT22;10036;47.812;9.274;2023-07-24T01:12:02;18.20;99.90
19755;DHT22;10036;47.812;9.274;2023-07-24T01:14:36;17.90;99.90
19755;DHT22;10036;47.812;9.274;2023-07-24T01:17:08;17.80;99.90
19755;DHT22;10036;47.812;9.274;2023-07-24T01:19:37;18.20;99.90
19755;DHT22;10036;47.812;9.274;2023-07-24T01:22:12;18.50;99.90
19755;DHT22;10036;47.812;9.274;2023-07-24T01:24:58;18.60;99.90
19755;DHT22;10036;47.812;9.274;2023-07-24T01:27:28;18.60;99.90
19755;DHT22;10036;47.812;9.274;2023-07-24T01:29:54;18.60;99.90
19755;DHT22;10036;47.812;9.274;2023-07-24T01:32:21;18.40;99.90
19755;DHT22;10036;47.812;9.274;2023-07-24T01:34:48;18.40;99.90
19755;DHT22;10036;47.812;9.274;2023-07-24T01:37:16;18.40;99.90
19755;DHT22;10036;47.812;9.274;2023-07-24T01:39:44;18.30;99.90
19755;DHT22;10036;47.812;9.274;2023-07-24T01:42:12;18.20;99.90
19755;DHT22;10036;47.812;9.274;2023-07-24T01:44:41;18.20;99.90
19755;DHT22;10036;47.812;9.274;2023-07-24T01:47:07;18.10;99.90
19755;DHT22;10036;47.812;9.274;2023-07-24T01:49:34;18.10;99.90
19755;DHT22;10036;47.812;9.274;2023-07-24T01:52:01;18.10;99.90
19755;DHT22;10036;47.812;9.274;2023-07-24T01:54:28;18.10;99.90
19755;DHT22;10036;47.812;9.274;2023-07-24T01:56:55;18.00;99.90
19755;DHT22;10036;47.812;9.274;2023-07-24T01:59:22;18.30;99.90
19755;DHT22;10036;47.812;9.274;2023-07-24T02:01:50;18.30;99.90
19755;DHT22;10036;47.812;9.274;2023-07-24T02:04:17;18.40;99.90
19755;DHT22;10036;47.812;9.274;2023-07-24T02:06:47;18.30;99.90
19755;DHT22;10036;47.812;9.274;2023-07-24T02:09:14;18.30;99.90
19755;DHT22;10036;47.812;9.274;2023-07-24T02:11:41;18.30;99.90
19755;DHT22;10036;47.812;9.274;2023-07-24T02:14:08;18.50;99.90
19755;DHT22;10036;47.812;9.274;2023-07-24T02:16:35;18.40;99.90
19755;DHT22;10036;47.812;9.274;2023-07-24T02:19:04;18.30;99.90
19755;DHT22;10036;47.812;9.274;2023-07-24T02:21:31;18.30;99.90
19755;DHT22;10036;47.812;9.274;2023-07-24T02:23:57;18.20;99.90
19755;DHT22;10036;47.812;9.274;2023-07-24T02:26:24;18.10;99.90
19755;DHT22;10036;47.812;9.274;2023-07-24T02:28:51;17.90;99.90
19755;DHT22;10036;47.812;9.274;2023-07-24T02:31:19;17.80;99.90
19755;DHT22;10036;47.812;9.274;2023-07-24T02:33:46;17.80;99.90
19755;DHT22;10036;47.812;9.274;2023-07-24T02:36:15;17.90;99.90
19755;DHT22;10036;47.812;9.274;2023-07-24T02:38:41;18.00;99.90
19755;DHT22;10036;47.812;9.274;2023-07-24T02:41:08;17.90;99.90
19755;DHT22;10036;47.812;9.274;2023-07-24T02:43:35;18.00;99.90
19755;DHT22;10036;47.812;9.274;2023-07-24T02:46:02;18.00;99.90
19755;DHT22;10036;47.812;9.274;2023-07-24T02:48:29;17.70;99.90
19755;DHT22;10036;47.812;9.274;2023-07-24T02:50:56;17.60;99.90
19755;DHT22;10036;47.812;9.274;2023-07-24T02:53:24;17.70;99.90
19755;DHT22;10036;47.812;9.274;2023-07-24T02:55:51;17.60;99.90
19755;DHT22;10036;47.812;9.274;2023-07-24T02:58:18;17.50;99.90
19755;DHT22;10036;47.812;9.274;2023-07-24T03:00:45;17.50;99.90
19755;DHT22;10036;47.812;9.274;2023-07-24T03:03:12;17.60;99.90
19755;DHT22;10036;47.812;9.274;2023-07-24T03:05:39;17.60;99.90
19755;DHT22;10036;47.812;9.274;2023-07-24T03:08:05;17.90;99.90
19755;DHT22;10036;47.812;9.274;2023-07-24T03:10:34;18.00;99.90
19755;DHT22;10036;47.812;9.274;2023-07-24T03:13:00;18.00;99.90
19755;DHT22;10036;47.812;9.274;2023-07-24T03:15:28;17.90;99.90
19755;DHT22;10036;47.812;9.274;2023-07-24T03:17:54;18.00;99.90
19755;DHT22;10036;47.812;9.274;2023-07-24T03:20:21;17.90;99.90
19755;DHT22;10036;47.812;9.274;2023-07-24T03:22:48;17.90;99.90
19755;DHT22;10036;47.812;9.274;2023-07-24T03:25:15;18.00;99.90
19755;DHT22;10036;47.812;9.274;2023-07-24T03:27:43;18.10;99.90
19755;DHT22;10036;47.812;9.274;2023-07-24T03:30:11;18.00;99.90
19755;DHT22;10036;47.812;9.274;2023-07-24T03:32:37;17.60;99.90
19755;DHT22;10036;47.812;9.274;2023-07-24T03:35:05;17.60;99.90
19755;DHT22;10036;47.812;9.274;2023-07-24T03:37:33;17.50;99.90
19755;DHT22;10036;47.812;9.274;2023-07-24T03:40:00;17.40;99.90
19755;DHT22;10036;47.812;9.274;2023-07-24T03:42:28;17.60;99.90
19755;DHT22;10036;47.812;9.274;2023-07-24T03:44:57;17.70;99.90
19755;DHT22;10036;47.812;9.274;2023-07-24T03:47:24;17.90;99.90
19755;DHT22;10036;47.812;9.274;2023-07-24T03:49:51;17.90;99.90
19755;DHT22;10036;47.812;9.274;2023-07-24T03:52:18;17.80;99.90
19755;DHT22;10036;47.812;9.274;2023-07-24T03:54:45;17.80;99.90
19755;DHT22;10036;47.812;9.274;2023-07-24T03:57:12;17.50;99.90
19755;DHT22;10036;47.812;9.274;2023-07-24T03:59:39;17.70;99.90
19755;DHT22;10036;47.812;9.274;2023-07-24T04:02:07;17.60;99.90
19755;DHT22;10036;47.812;9.274;2023-07-24T04:04:34;17.60;99.90
19755;DHT22;10036;47.812;9.274;2023-07-24T04:07:01;17.40;99.90
19755;DHT22;10036;47.812;9.274;2023-07-24T04:09:28;17.30;99.90
19755;DHT22;10036;47.812;9.274;2023-07-24T04:11:55;17.30;99.90
19755;DHT22;10036;47.812;9.274;2023-07-24T04:14:22;17.50;99.90
19755;DHT22;10036;47.812;9.274;2023-07-24T04:16:49;17.50;99.90
19755;DHT22;10036;47.812;9.274;2023-07-24T04:19:17;17.50;99.90
19755;DHT22;10036;47.812;9.274;2023-07-24T04:21:44;17.70;99.90
19755;DHT22;10036;47.812;9.274;2023-07-24T04:24:11;17.80;99.90
19755;DHT22;10036;47.812;9.274;2023-07-24T04:26:38;17.80;99.90
19755;DHT22;10036;47.812;9.274;2023-07-24T04:29:05;17.80;99.90
19755;DHT22;10036;47.812;9.274;2023-07-24T04:31:32;17.70;99.90
19755;DHT22;10036;47.812;9.274;2023-07-24T04:33:59;17.70;99.90
19755;DHT22;10036;47.812;9.274;2023-07-24T04:36:27;17.60;99.90
19755;DHT22;10036;47.812;9.274;2023-07-24T04:38:54;17.40;99.90
19755;DHT22;10036;47.812;9.274;2023-07-24T04:41:21;17.30;99.90
19755;DHT22;10036;47.812;9.274;2023-07-24T04:43:48;17.40;99.90
19755;DHT22;10036;47.812;9.274;2023-07-24T04:46:15;17.50;99.90
19755;DHT22;10036;47.812;9.274;2023-07-24T04:48:42;17.60;99.90
19755;DHT22;10036;47.812;9.274;2023-07-24T04:51:08;17.60;99.90
19755;DHT22;10036;47.812;9.274;2023-07-24T04:53:37;17.60;99.90
19755;DHT22;10036;47.812;9.274;2023-07-24T04:56:04;17.50;99.90
19755;DHT22;10036;47.812;9.274;2023-07-24T04:58:31;17.60;99.90
19755;DHT22;10036;47.812;9.274;2023-07-24T05:00:58;17.50;99.90
19755;DHT22;10036;47.812;9.274;2023-07-24T05:03:28;17.60;99.90
19755;DHT22;10036;47.812;9.274;2023-07-24T05:05:55;17.60;99.90
19755;DHT22;10036;47.812;9.274;2023-07-24T05:08:22;17.70;99.90
19755;DHT22;10036;47.812;9.274;2023-07-24T05:10:55;17.80;99.90
19755;DHT22;10036;47.812;9.274;2023-07-24T05:13:22;17.50;99.90
19755;DHT22;10036;47.812;9.274;2023-07-24T05:15:48;17.20;99.90
19755;DHT22;10036;47.812;9.274;2023-07-24T05:18:15;17.20;99.90
19755;DHT22;10036;47.812;9.274;2023-07-24T05:20:45;17.00;99.90
19755;DHT22;10036;47.812;9.274;2023-07-24T05:23:13;17.20;99.90
19755;DHT22;10036;47.812;9.274;2023-07-24T05:25:40;17.20;99.90
19755;DHT22;10036;47.812;9.274;2023-07-24T05:28:09;17.40;99.90
19755;DHT22;10036;47.812;9.274;2023-07-24T05:30:36;17.40;99.90
19755;DHT22;10036;47.812;9.274;2023-07-24T05:33:03;17.50;99.90
19755;DHT22;10036;47.812;9.274;2023-07-24T05:35:30;17.60;99.90
19755;DHT22;10036;47.812;9.274;2023-07-24T05:37:56;17.50;99.90
19755;DHT22;10036;47.812;9.274;2023-07-24T05:40:23;17.10;99.90
19755;DHT22;10036;47.812;9.274;2023-07-24T05:42:50;17.20;99.90
19755;DHT22;10036;47.812;9.274;2023-07-24T05:45:18;17.50;99.90
19755;DHT22;10036;47.812;9.274;2023-07-24T05:47:45;17.60;99.90
19755;DHT22;10036;47.812;9.274;2023-07-24T05:50:12;17.60;99.90
19755;DHT22;10036;47.812;9.274;2023-07-24T05:52:39;17.60;99.90
19755;DHT22;10036;47.812;9.274;2023-07-24T05:55:08;17.70;99.90
19755;DHT22;10036;47.812;9.274;2023-07-24T05:57:35;17.70;99.90
19755;DHT22;10036;47.812;9.274;2023-07-24T06:00:04;17.70;99.90
19755;DHT22;10036;47.812;9.274;2023-07-24T06:02:32;17.70;99.90
19755;DHT22;10036;47.812;9.274;2023-07-24T06:04:59;17.60;99.90
19755;DHT22;10036;47.812;9.274;2023-07-24T06:07:26;17.60;99.90
19755;DHT22;10036;47.812;9.274;2023-07-24T06:09:53;17.70;99.90
19755;DHT22;10036;47.812;9.274;2023-07-24T06:12:20;17.70;99.90
19755;DHT22;10036;47.812;9.274;2023-07-24T06:14:47;17.70;99.90
19755;DHT22;10036;47.812;9.274;2023-07-24T06:17:13;17.80;99.90
19755;DHT22;10036;47.812;9.274;2023-07-24T06:19:42;17.80;99.90
19755;DHT22;10036;47.812;9.274;2023-07-24T06:22:08;17.80;99.90
19755;DHT22;10036;47.812;9.274;2023-07-24T06:24:35;17.80;99.90
19755;DHT22;10036;47.812;9.274;2023-07-24T06:27:03;17.80;99.90
19755;DHT22;10036;47.812;9.274;2023-07-24T06:29:32;17.90;99.90
19755;DHT22;10036;47.812;9.274;2023-07-24T06:31:59;17.90;99.90
19755;DHT22;10036;47.812;9.274;2023-07-24T06:34:25;18.00;99.90
19755;DHT22;10036;47.812;9.274;2023-07-24T06:36:54;18.00;99.90
19755;DHT22;10036;47.812;9.274;2023-07-24T06:39:21;17.90;99.90
19755;DHT22;10036;47.812;9.274;2023-07-24T06:41:47;17.80;99.90
19755;DHT22;10036;47.812;9.274;2023-07-24T06:44:15;18.00;99.90
19755;DHT22;10036;47.812;9.274;2023-07-24T06:46:41;18.20;99.90
19755;DHT22;10036;47.812;9.274;2023-07-24T06:49:08;18.30;99.90
19755;DHT22;10036;47.812;9.274;2023-07-24T06:51:36;18.40;99.90
19755;DHT22;10036;47.812;9.274;2023-07-24T06:54:05;18.40;99.90
19755;DHT22;10036;47.812;9.274;2023-07-24T06:56:32;18.40;99.90
19755;DHT22;10036;47.812;9.274;2023-07-24T06:58:59;18.40;99.90
19755;DHT22;10036;47.812;9.274;2023-07-24T07:01:26;18.40;99.90
19755;DHT22;10036;47.812;9.274;2023-07-24T07:03:53;18.60;99.90
19755;DHT22;10036;47.812;9.274;2023-07-24T07:06:19;18.70;99.90
19755;DHT22;10036;47.812;9.274;2023-07-24T07:08:46;18.80;99.90
19755;DHT22;10036;47.812;9.274;2023-07-24T07:11:14;18.90;99.90
19755;DHT22;10036;47.812;9.274;2023-07-24T07:13:41;18.90;99.90
19755;DHT22;10036;47.812;9.274;2023-07-24T07:16:08;19.00;99.90
19755;DHT22;10036;47.812;9.274;2023-07-24T07:18:35;19.10;99.90
19755;DHT22;10036;47.812;9.274;2023-07-24T07:21:02;19.10;99.90
19755;DHT22;10036;47.812;9.274;2023-07-24T07:23:29;19.10;99.90
19755;DHT22;10036;47.812;9.274;2023-07-24T07:25:56;19.10;99.90
19755;DHT22;10036;47.812;9.274;2023-07-24T07:28:24;19.00;99.90
19755;DHT22;10036;47.812;9.274;2023-07-24T07:30:51;19.00;99.90
19755;DHT22;10036;47.812;9.274;2023-07-24T07:33:18;19.00;99.90
19755;DHT22;10036;47.812;9.274;2023-07-24T07:35:47;18.90;99.90
19755;DHT22;10036;47.812;9.274;2023-07-24T07:38:14;18.90;99.90
19755;DHT22;10036;47.812;9.274;2023-07-24T07:40:41;18.80;99.90
19755;DHT22;10036;47.812;9.274;2023-07-24T07:43:07;18.80;99.90
19755;DHT22;10036;47.812;9.274;2023-07-24T07:45:36;18.80;99.90
19755;DHT22;10036;47.812;9.274;2023-07-24T07:48:03;18.70;99.90
19755;DHT22;10036;47.812;9.274;2023-07-24T07:50:30;18.80;99.90
19755;DHT22;10036;47.812;9.274;2023-07-24T07:52:57;18.80;99.90
19755;DHT22;10036;47.812;9.274;2023-07-24T07:55:24;18.90;99.90
19755;DHT22;10036;47.812;9.274;2023-07-24T07:57:51;19.10;99.90
19755;DHT22;10036;47.812;9.274;2023-07-24T08:00:18;19.20;99.90
19755;DHT22;10036;47.812;9.274;2023-07-24T08:02:46;19.20;99.90
19755;DHT22;10036;47.812;9.274;2023-07-24T08:05:13;19.30;99.90
19755;DHT22;10036;47.812;9.274;2023-07-24T08:07:41;19.30;99.90
19755;DHT22;10036;47.812;9.274;2023-07-24T08:10:08;19.40;99.90
19755;DHT22;10036;47.812;9.274;2023-07-24T08:12:35;19.50;99.90
19755;DHT22;10036;47.812;9.274;2023-07-24T08:15:03;19.50;99.90
19755;DHT22;10036;47.812;9.274;2023-07-24T08:17:30;19.50;99.90
19755;DHT22;10036;47.812;9.274;2023-07-24T08:19:58;19.50;99.90
19755;DHT22;10036;47.812;9.274;2023-07-24T08:22:25;19.40;99.90
19755;DHT22;10036;47.812;9.274;2023-07-24T08:24:52;19.30;99.90
19755;DHT22;10036;47.812;9.274;2023-07-24T08:27:19;19.10;99.90
19755;DHT22;10036;47.812;9.274;2023-07-24T08:29:46;19.10;99.90
19755;DHT22;10036;47.812;9.274;2023-07-24T08:32:13;19.30;99.90
19755;DHT22;10036;47.812;9.274;2023-07-24T08:34:40;19.50;99.90
19755;DHT22;10036;47.812;9.274;2023-07-24T08:37:08;19.70;99.90
19755;DHT22;10036;47.812;9.274;2023-07-24T08:39:35;19.90;99.90
19755;DHT22;10036;47.812;9.274;2023-07-24T08:42:08;19.90;99.90
19755;DHT22;10036;47.812;9.274;2023-07-24T08:44:36;20.00;99.90
19755;DHT22;10036;47.812;9.274;2023-07-24T08:47:04;20.00;99.90
19755;DHT22;10036;47.812;9.274;2023-07-24T08:49:33;20.00;99.90
19755;DHT22;10036;47.812;9.274;2023-07-24T08:52:01;20.10;99.90
19755;DHT22;10036;47.812;9.274;2023-07-24T08:54:32;20.30;99.90
19755;DHT22;10036;47.812;9.274;2023-07-24T08:57:02;20.30;99.90
19755;DHT22;10036;47.812;9.274;2023-07-24T08:59:30;20.20;99.90
19755;DHT22;10036;47.812;9.274;2023-07-24T09:01:57;20.20;99.90
19755;DHT22;10036;47.812;9.274;2023-07-24T09:04:25;20.30;99.90
19755;DHT22;10036;47.812;9.274;2023-07-24T09:06:52;20.50;99.90
19755;DHT22;10036;47.812;9.274;2023-07-24T09:09:19;20.70;99.90
19755;DHT22;10036;47.812;9.274;2023-07-24T09:11:49;20.70;99.90
19755;DHT22;10036;47.812;9.274;2023-07-24T09:14:21;20.70;99.90
19755;DHT22;10036;47.812;9.274;2023-07-24T09:16:48;20.90;99.90
19755;DHT22;10036;47.812;9.274;2023-07-24T09:19:18;20.80;99.90
19755;DHT22;10036;47.812;9.274;2023-07-24T09:21:45;20.80;99.90
19755;DHT22;10036;47.812;9.274;2023-07-24T09:24:13;21.10;99.90
19755;DHT22;10036;47.812;9.274;2023-07-24T09:26:48;21.20;99.90
19755;DHT22;10036;47.812;9.274;2023-07-24T09:29:16;21.10;99.90
19755;DHT22;10036;47.812;9.274;2023-07-24T09:31:43;21.00;99.90
19755;DHT22;10036;47.812;9.274;2023-07-24T09:34:15;21.00;99.90
19755;DHT22;10036;47.812;9.274;2023-07-24T09:36:42;21.20;99.90
19755;DHT22;10036;47.812;9.274;2023-07-24T09:39:10;21.30;99.90
19755;DHT22;10036;47.812;9.274;2023-07-24T09:41:38;21.40;99.90
19755;DHT22;10036;47.812;9.274;2023-07-24T09:44:06;21.30;99.90
19755;DHT22;10036;47.812;9.274;2023-07-24T09:46:33;21.60;99.90
19755;DHT22;10036;47.812;9.274;2023-07-24T09:49:00;21.80;99.90
19755;DHT22;10036;47.812;9.274;2023-07-24T09:51:29;21.60;99.90
19755;DHT22;10036;47.812;9.274;2023-07-24T09:54:01;21.60;99.90
19755;DHT22;10036;47.812;9.274;2023-07-24T09:56:32;21.60;99.90
19755;DHT22;10036;47.812;9.274;2023-07-24T09:59:00;21.50;99.90
19755;DHT22;10036;47.812;9.274;2023-07-24T10:01:31;21.50;99.90
19755;DHT22;10036;47.812;9.274;2023-07-24T10:03:59;21.50;99.90
19755;DHT22;10036;47.812;9.274;2023-07-24T10:06:27;21.60;99.90
19755;DHT22;10036;47.812;9.274;2023-07-24T10:08:56;21.80;99.90
19755;DHT22;10036;47.812;9.274;2023-07-24T10:11:24;22.20;99.90
19755;DHT22;10036;47.812;9.274;2023-07-24T10:13:51;22.50;99.90
19755;DHT22;10036;47.812;9.274;2023-07-24T10:16:19;22.60;99.90
19755;DHT22;10036;47.812;9.274;2023-07-24T10:18:48;22.70;99.90
19755;DHT22;10036;47.812;9.274;2023-07-24T10:21:16;22.90;99.90
19755;DHT22;10036;47.812;9.274;2023-07-24T10:23:44;22.90;99.90
19755;DHT22;10036;47.812;9.274;2023-07-24T10:26:12;23.00;99.90
19755;DHT22;10036;47.812;9.274;2023-07-24T10:28:40;22.90;99.90
19755;DHT22;10036;47.812;9.274;2023-07-24T10:31:18;22.80;99.90
19755;DHT22;10036;47.812;9.274;2023-07-24T10:33:45;22.70;99.90
19755;DHT22;10036;47.812;9.274;2023-07-24T10:36:17;22.50;99.90
19755;DHT22;10036;47.812;9.274;2023-07-24T10:38:46;22.20;99.90
19755;DHT22;10036;47.812;9.274;2023-07-24T10:41:13;22.20;99.90
19755;DHT22;10036;47.812;9.274;2023-07-24T10:43:43;22.00;99.90
19755;DHT22;10036;47.812;9.274;2023-07-24T10:46:11;21.90;99.90
19755;DHT22;10036;47.812;9.274;2023-07-24T10:48:41;21.80;99.90
19755;DHT22;10036;47.812;9.274;2023-07-24T10:51:09;21.70;99.90
19755;DHT22;10036;47.812;9.274;2023-07-24T10:53:38;21.50;99.90
19755;DHT22;10036;47.812;9.274;2023-07-24T10:56:06;21.50;99.90
19755;DHT22;10036;47.812;9.274;2023-07-24T10:58:33;21.40;99.90
19755;DHT22;10036;47.812;9.274;2023-07-24T11:01:03;21.40;99.90
19755;DHT22;10036;47.812;9.274;2023-07-24T11:03:30;21.20;99.90
19755;DHT22;10036;47.812;9.274;2023-07-24T11:05:58;20.90;99.90
19755;DHT22;10036;47.812;9.274;2023-07-24T11:08:25;20.70;99.90
19755;DHT22;10036;47.812;9.274;2023-07-24T11:10:55;20.60;99.90
19755;DHT22;10036;47.812;9.274;2023-07-24T11:13:24;20.50;99.90
19755;DHT22;10036;47.812;9.274;2023-07-24T11:15:52;20.30;99.90
19755;DHT22;10036;47.812;9.274;2023-07-24T11:18:21;20.10;99.90
19755;DHT22;10036;47.812;9.274;2023-07-24T11:20:53;19.90;99.90
19755;DHT22;10036;47.812;9.274;2023-07-24T11:23:21;19.70;99.90
19755;DHT22;10036;47.812;9.274;2023-07-24T11:25:50;19.60;99.90
19755;DHT22;10036;47.812;9.274;2023-07-24T11:28:19;19.30;99.90
19755;DHT22;10036;47.812;9.274;2023-07-24T11:30:46;19.00;99.90
19755;DHT22;10036;47.812;9.274;2023-07-24T11:33:16;18.90;99.90
19755;DHT22;10036;47.812;9.274;2023-07-24T11:35:44;18.70;99.90
19755;DHT22;10036;47.812;9.274;2023-07-24T11:38:11;18.70;99.90
19755;DHT22;10036;47.812;9.274;2023-07-24T11:40:39;18.50;99.90
19755;DHT22;10036;47.812;9.274;2023-07-24T11:43:15;18.70;99.90
19755;DHT22;10036;47.812;9.274;2023-07-24T11:45:45;18.40;99.90
19755;DHT22;10036;47.812;9.274;2023-07-24T11:48:14;18.50;99.90
19755;DHT22;10036;47.812;9.274;2023-07-24T11:50:42;18.50;99.90
19755;DHT22;10036;47.812;9.274;2023-07-24T11:53:19;18.60;99.90
19755;DHT22;10036;47.812;9.274;2023-07-24T11:55:47;18.80;99.90
19755;DHT22;10036;47.812;9.274;2023-07-24T11:58:15;18.90;99.90
19755;DHT22;10036;47.812;9.274;2023-07-24T12:00:42;18.90;99.90
19755;DHT22;10036;47.812;9.274;2023-07-24T12:03:10;19.10;99.90
19755;DHT22;10036;47.812;9.274;2023-07-24T12:05:38;19.20;99.90
19755;DHT22;10036;47.812;9.274;2023-07-24T12:08:05;19.20;99.90
19755;DHT22;10036;47.812;9.274;2023-07-24T12:10:36;19.20;99.90
19755;DHT22;10036;47.812;9.274;2023-07-24T12:13:03;19.30;99.90
19755;DHT22;10036;47.812;9.274;2023-07-24T12:15:30;19.30;99.90
19755;DHT22;10036;47.812;9.274;2023-07-24T12:17:58;19.30;99.90
19755;DHT22;10036;47.812;9.274;2023-07-24T12:20:27;19.50;99.90
19755;DHT22;10036;47.812;9.274;2023-07-24T12:22:54;19.80;99.90
19755;DHT22;10036;47.812;9.274;2023-07-24T12:25:21;20.00;99.90
19755;DHT22;10036;47.812;9.274;2023-07-24T12:27:48;20.10;99.90
19755;DHT22;10036;47.812;9.274;2023-07-24T12:30:15;20.20;99.90
19755;DHT22;10036;47.812;9.274;2023-07-24T12:32:42;20.50;99.90
19755;DHT22;10036;47.812;9.274;2023-07-24T12:35:10;20.90;99.90
19755;DHT22;10036;47.812;9.274;2023-07-24T12:37:38;21.20;99.90
19755;DHT22;10036;47.812;9.274;2023-07-24T12:40:07;21.20;99.90
19755;DHT22;10036;47.812;9.274;2023-07-24T12:42:34;21.60;99.90
19755;DHT22;10036;47.812;9.274;2023-07-24T12:45:01;21.60;99.90
19755;DHT22;10036;47.812;9.274;2023-07-24T12:47:29;21.50;99.90
19755;DHT22;10036;47.812;9.274;2023-07-24T12:49:56;21.40;99.90
19755;DHT22;10036;47.812;9.274;2023-07-24T12:52:24;21.40;99.90
19755;DHT22;10036;47.812;9.274;2023-07-24T12:54:53;21.60;99.90
19755;DHT22;10036;47.812;9.274;2023-07-24T12:57:20;21.80;99.90
19755;DHT22;10036;47.812;9.274;2023-07-24T12:59:47;21.90;99.90
19755;DHT22;10036;47.812;9.274;2023-07-24T13:02:14;21.90;99.90
19755;DHT22;10036;47.812;9.274;2023-07-24T13:04:41;22.10;99.90
19755;DHT22;10036;47.812;9.274;2023-07-24T13:07:08;22.30;99.90
19755;DHT22;10036;47.812;9.274;2023-07-24T13:09:35;22.30;99.90
19755;DHT22;10036;47.812;9.274;2023-07-24T13:12:04;22.20;99.90
19755;DHT22;10036;47.812;9.274;2023-07-24T13:14:31;22.40;99.90
19755;DHT22;10036;47.812;9.274;2023-07-24T13:16:58;22.60;99.90
19755;DHT22;10036;47.812;9.274;2023-07-24T13:19:25;22.70;99.90
19755;DHT22;10036;47.812;9.274;2023-07-24T13:21:52;22.80;99.90
19755;DHT22;10036;47.812;9.274;2023-07-24T13:24:18;23.10;99.90
19755;DHT22;10036;47.812;9.274;2023-07-24T13:26:45;23.10;99.90
19755;DHT22;10036;47.812;9.274;2023-07-24T13:29:13;23.20;99.90
19755;DHT22;10036;47.812;9.274;2023-07-24T13:31:40;23.00;99.90
19755;DHT22;10036;47.812;9.274;2023-07-24T13:34:07;22.70;99.90
19755;DHT22;10036;47.812;9.274;2023-07-24T13:36:34;22.60;99.90
19755;DHT22;10036;47.812;9.274;2023-07-24T13:39:01;22.40;99.90
19755;DHT22;10036;47.812;9.274;2023-07-24T13:41:28;22.30;99.90
19755;DHT22;10036;47.812;9.274;2023-07-24T13:43:55;22.30;99.90
19755;DHT22;10036;47.812;9.274;2023-07-24T13:46:24;22.20;99.90
19755;DHT22;10036;47.812;9.274;2023-07-24T13:48:51;22.40;99.90
19755;DHT22;10036;47.812;9.274;2023-07-24T13:51:17;22.40;99.90
19755;DHT22;10036;47.812;9.274;2023-07-24T13:53:44;22.20;99.90
19755;DHT22;10036;47.812;9.274;2023-07-24T13:56:13;22.20;99.90
19755;DHT22;10036;47.812;9.274;2023-07-24T13:58:40;22.30;99.90
19755;DHT22;10036;47.812;9.274;2023-07-24T14:01:07;22.30;99.90
19755;DHT22;10036;47.812;9.274;2023-07-24T14:03:35;22.30;99.90
19755;DHT22;10036;47.812;9.274;2023-07-24T14:06:02;22.40;99.90
19755;DHT22;10036;47.812;9.274;2023-07-24T14:08:30;22.40;99.90
19755;DHT22;10036;47.812;9.274;2023-07-24T14:10:57;22.10;99.90
19755;DHT22;10036;47.812;9.274;2023-07-24T14:13:24;22.00;99.90
19755;DHT22;10036;47.812;9.274;2023-07-24T14:15:51;21.90;99.90
19755;DHT22;10036;47.812;9.274;2023-07-24T14:18:17;21.60;99.90
19755;DHT22;10036;47.812;9.274;2023-07-24T14:20:46;21.60;99.90
19755;DHT22;10036;47.812;9.274;2023-07-24T14:23:13;21.50;99.90
19755;DHT22;10036;47.812;9.274;2023-07-24T14:25:39;21.60;99.90
19755;DHT22;10036;47.812;9.274;2023-07-24T14:28:06;21.70;99.90
19755;DHT22;10036;47.812;9.274;2023-07-24T14:30:33;21.60;99.90
19755;DHT22;10036;47.812;9.274;2023-07-24T14:33:00;21.60;99.90
19755;DHT22;10036;47.812;9.274;2023-07-24T14:35:27;21.60;99.90
19755;DHT22;10036;47.812;9.274;2023-07-24T14:37:56;21.40;99.90
19755;DHT22;10036;47.812;9.274;2023-07-24T14:40:23;21.40;99.90
19755;DHT22;10036;47.812;9.274;2023-07-24T14:42:50;21.20;99.90
19755;DHT22;10036;47.812;9.274;2023-07-24T14:45:16;21.20;99.90
19755;DHT22;10036;47.812;9.274;2023-07-24T14:47:44;21.10;99.90
19755;DHT22;10036;47.812;9.274;2023-07-24T14:50:11;20.80;99.90
19755;DHT22;10036;47.812;9.274;2023-07-24T14:52:37;20.50;99.90
19755;DHT22;10036;47.812;9.274;2023-07-24T14:55:07;20.00;99.90
19755;DHT22;10036;47.812;9.274;2023-07-24T14:57:35;20.00;99.90
19755;DHT22;10036;47.812;9.274;2023-07-24T15:00:02;20.00;99.90
19755;DHT22;10036;47.812;9.274;2023-07-24T15:02:29;19.80;99.90
19755;DHT22;10036;47.812;9.274;2023-07-24T15:04:58;19.90;99.90
19755;DHT22;10036;47.812;9.274;2023-07-24T15:07:25;20.00;99.90
19755;DHT22;10036;47.812;9.274;2023-07-24T15:09:52;20.10;99.90
19755;DHT22;10036;47.812;9.274;2023-07-24T15:12:21;20.00;99.90
19755;DHT22;10036;47.812;9.274;2023-07-24T15:14:48;19.70;99.90
19755;DHT22;10036;47.812;9.274;2023-07-24T15:17:14;19.70;99.90
19755;DHT22;10036;47.812;9.274;2023-07-24T15:19:43;19.70;99.90
19755;DHT22;10036;47.812;9.274;2023-07-24T15:22:10;19.70;99.90
19755;DHT22;10036;47.812;9.274;2023-07-24T15:24:37;19.70;99.90
19755;DHT22;10036;47.812;9.274;2023-07-24T15:27:04;19.80;99.90
19755;DHT22;10036;47.812;9.274;2023-07-24T15:29:35;19.80;99.90
19755;DHT22;10036;47.812;9.274;2023-07-24T15:32:02;19.70;99.90